sensor_id;sensor_type;location;lat;lon;timestamp;temperature;humidity
14397;DHT22;50653;47.810;13.022;2024-03-23T00:55:40;11.80;99.90
14397;DHT22;50653;47.810;13.022;2024-03-23T00:58:06;11.80;99.90
14397;DHT22;50653;47.810;13.022;2024-03-23T01:00:32;11.80;99.90
14397;DHT22;50653;47.810;13.022;2024-03-23T01:02:58;11.90;99.90
14397;DHT22;50653;47.810;13.022;2024-03-23T01:05:24;11.80;99.90
14397;DHT22;50653;47.810;13.022;2024-03-23T01:07:49;11.80;99.90
14397;DHT22;50653;47.810;13.022;2024-03-23T01:10:15;11.80;99.90
14397;DHT22;50653;47.810;13.022;2024-03-23T01:12:41;11.70;99.90
14397;DHT22;50653;47.810;13.022;2024-03-23T01:15:06;11.70;99.90
14397;DHT22;50653;47.810;13.022;2024-03-23T01:17:32;11.70;99.90
14397;DHT22;50653;47.810;13.022;2024-03-23T01:19:58;11.60;99.90
14397;DHT22;50653;47.810;13.022;2024-03-23T01:22:24;11.70;99.90
14397;DHT22;50653;47.810;13.022;2024-03-23T01:24:49;11.70;99.90
14397;DHT22;50653;47.810;13.022;2024-03-23T01:27:15;11.70;99.90
14397;DHT22;50653;47.810;13.022;2024-03-23T01:29:41;11.60;99.90
14397;DHT22;50653;47.810;13.022;2024-03-23T01:32:06;11.60;99.90
14397;DHT22;50653;47.810;13.022;2024-03-23T01:34:32;11.60;99.90
14397;DHT22;50653;47.810;13.022;2024-03-23T01:36:58;11.60;99.90
14397;DHT22;50653;47.810;13.022;2024-03-23T01:39:24;11.50;99.90
14397;DHT22;50653;47.810;13.022;2024-03-23T01:41:50;11.40;99.90
14397;DHT22;50653;47.810;13.022;2024-03-23T01:44:17;11.40;99.90
14397;DHT22;50653;47.810;13.022;2024-03-23T01:46:43;11.40;99.90
14397;DHT22;50653;47.810;13.022;2024-03-23T01:49:09;11.30;99.90
14397;DHT22;50653;47.810;13.022;2024-03-23T01:51:36;11.30;99.90
14397;DHT22;50653;47.810;13.022;2024-03-23T01:54:03;11.20;99.90
14397;DHT22;50653;47.810;13.022;2024-03-23T01:56:29;11.20;99.90
14397;DHT22;50653;47.810;13.022;2024-03-23T01:58:56;11.20;99.90
14397;DHT22;50653;47.810;13.022;2024-03-23T02:01:22;11.00;99.90
14397;DHT22;50653;47.810;13.022;2024-03-23T02:03:47;11.00;99.90
14397;DHT22;50653;47.810;13.022;2024-03-23T02:06:14;11.10;99.90
14397;DHT22;50653;47.810;13.022;2024-03-23T02:08:40;11.00;99.90
14397;DHT22;50653;47.810;13.022;2024-03-23T02:11:06;11.00;99.90
14397;DHT22;50653;47.810;13.022;2024-03-23T02:13:31;11.00;99.90
14397;DHT22;50653;47.810;13.022;2024-03-23T02:15:57;11.10;99.90
14397;DHT22;50653;47.810;13.022;2024-03-23T02:18:23;11.10;99.90
14397;DHT22;50653;47.810;13.022;2024-03-23T02:20:49;11.00;99.90
14397;DHT22;50653;47.810;13.022;2024-03-23T02:23:16;11.00;99.90
14397;DHT22;50653;47.810;13.022;2024-03-23T02:25:42;11.00;99.90
14397;DHT22;50653;47.810;13.022;2024-03-23T02:28:07;10.90;99.90
14397;DHT22;50653;47.810;13.022;2024-03-23T02:30:33;10.90;99.90
14397;DHT22;50653;47.810;13.022;2024-03-23T02:32:59;10.90;99.90
14397;DHT22;50653;47.810;13.022;2024-03-23T02:35:25;10.90;99.90
14397;DHT22;50653;47.810;13.022;2024-03-23T02:37:50;10.90;99.90
14397;DHT22;50653;47.810;13.022;2024-03-23T02:40:17;10.90;99.90
14397;DHT22;50653;47.810;13.022;2024-03-23T02:42:43;10.80;99.90
14397;DHT22;50653;47.810;13.022;2024-03-23T02:45:09;10.80;99.90
14397;DHT22;50653;47.810;13.022;2024-03-23T02:47:35;10.80;99.90
14397;DHT22;50653;47.810;13.022;2024-03-23T02:50:00;10.80;99.90
14397;DHT22;50653;47.810;13.022;2024-03-23T02:52:26;10.80;99.90
14397;DHT22;50653;47.810;13.022;2024-03-23T02:54:52;10.80;99.90
14397;DHT22;50653;47.810;13.022;2024-03-23T02:57:18;10.70;99.90
14397;DHT22;50653;47.810;13.022;2024-03-23T02:59:44;10.70;99.90
14397;DHT22;50653;47.810;13.022;2024-03-23T03:02:09;10.70;99.90
14397;DHT22;50653;47.810;13.022;2024-03-23T03:04:35;10.70;99.90
14397;DHT22;50653;47.810;13.022;2024-03-23T03:07:01;10.70;99.90
14397;DHT22;50653;47.810;13.022;2024-03-23T03:09:26;10.60;99.90
14397;DHT22;50653;47.810;13.022;2024-03-23T03:11:52;10.60;99.90
14397;DHT22;50653;47.810;13.022;2024-03-23T03:14:18;10.60;99.90
14397;DHT22;50653;47.810;13.022;2024-03-23T03:16:43;10.60;99.90
14397;DHT22;50653;47.810;13.022;2024-03-23T03:19:09;10.50;99.90
14397;DHT22;50653;47.810;13.022;2024-03-23T03:21:36;10.50;99.90
14397;DHT22;50653;47.810;13.022;2024-03-23T03:24:02;10.60;99.90
14397;DHT22;50653;47.810;13.022;2024-03-23T03:26:28;10.50;99.90
14397;DHT22;50653;47.810;13.022;2024-03-23T03:28:54;10.50;99.90
14397;DHT22;50653;47.810;13.022;2024-03-23T03:31:20;10.50;99.90
14397;DHT22;50653;47.810;13.022;2024-03-23T03:33:46;10.40;99.90
14397;DHT22;50653;47.810;13.022;2024-03-23T03:36:13;10.40;99.90
14397;DHT22;50653;47.810;13.022;2024-03-23T03:38:39;10.40;99.90
14397;DHT22;50653;47.810;13.022;2024-03-23T03:41:04;10.30;99.90
14397;DHT22;50653;47.810;13.022;2024-03-23T03:43:31;10.30;99.90
14397;DHT22;50653;47.810;13.022;2024-03-23T03:45:58;10.30;99.90
14397;DHT22;50653;47.810;13.022;2024-03-23T03:48:24;10.20;99.90
14397;DHT22;50653;47.810;13.022;2024-03-23T03:50:50;10.20;99.90
14397;DHT22;50653;47.810;13.022;2024-03-23T03:53:16;10.20;99.90
14397;DHT22;50653;47.810;13.022;2024-03-23T03:55:41;10.20;99.90
14397;DHT22;50653;47.810;13.022;2024-03-23T03:58:07;10.10;99.90
14397;DHT22;50653;47.810;13.022;2024-03-23T04:00:33;10.00;99.90
14397;DHT22;50653;47.810;13.022;2024-03-23T04:02:59;10.00;99.90
14397;DHT22;50653;47.810;13.022;2024-03-23T04:05:24;10.00;99.90
14397;DHT22;50653;47.810;13.022;2024-03-23T04:07:50;10.10;99.90
14397;DHT22;50653;47.810;13.022;2024-03-23T04:10:16;10.00;99.90
14397;DHT22;50653;47.810;13.022;2024-03-23T04:12:44;10.00;99.90
14397;DHT22;50653;47.810;13.022;2024-03-23T04:15:10;10.00;99.90
14397;DHT22;50653;47.810;13.022;2024-03-23T04:17:36;10.00;99.90
14397;DHT22;50653;47.810;13.022;2024-03-23T04:20:02;9.90;99.90
14397;DHT22;50653;47.810;13.022;2024-03-23T04:22:29;9.90;99.90
14397;DHT22;50653;47.810;13.022;2024-03-23T04:24:56;10.00;99.90
14397;DHT22;50653;47.810;13.022;2024-03-23T04:27:22;9.90;99.90
14397;DHT22;50653;47.810;13.022;2024-03-23T04:29:52;9.80;99.90
14397;DHT22;50653;47.810;13.022;2024-03-23T04:32:18;9.90;99.90
14397;DHT22;50653;47.810;13.022;2024-03-23T04:34:44;9.90;99.90
14397;DHT22;50653;47.810;13.022;2024-03-23T04:37:11;9.80;99.90
14397;DHT22;50653;47.810;13.022;2024-03-23T04:39:37;9.90;99.90
14397;DHT22;50653;47.810;13.022;2024-03-23T04:42:03;9.90;99.90
14397;DHT22;50653;47.810;13.022;2024-03-23T04:44:29;9.80;99.90
14397;DHT22;50653;47.810;13.022;2024-03-23T04:46:57;9.90;99.90
14397;DHT22;50653;47.810;13.022;2024-03-23T04:49:23;9.80;99.90
14397;DHT22;50653;47.810;13.022;2024-03-23T04:51:49;9.70;99.90
14397;DHT22;50653;47.810;13.022;2024-03-23T04:54:15;9.70;99.90
14397;DHT22;50653;47.810;13.022;2024-03-23T04:56:41;9.70;99.90
14397;DHT22;50653;47.810;13.022;2024-03-23T04:59:07;9.60;99.90
14397;DHT22;50653;47.810;13.022;2024-03-23T05:01:34;9.60;99.90
14397;DHT22;50653;47.810;13.022;2024-03-23T05:04:02;9.50;99.90
14397;DHT22;50653;47.810;13.022;2024-03-23T05:06:28;9.60;99.90
14397;DHT22;50653;47.810;13.022;2024-03-23T05:08:54;9.50;99.90
14397;DHT22;50653;47.810;13.022;2024-03-23T05:11:19;9.60;99.90
14397;DHT22;50653;47.810;13.022;2024-03-23T05:13:46;9.60;99.90
14397;DHT22;50653;47.810;13.022;2024-03-23T05:16:12;9.50;99.90
14397;DHT22;50653;47.810;13.022;2024-03-23T05:18:38;9.60;99.90
14397;DHT22;50653;47.810;13.022;2024-03-23T05:21:03;9.50;99.90
14397;DHT22;50653;47.810;13.022;2024-03-23T05:23:30;9.60;99.90
14397;DHT22;50653;47.810;13.022;2024-03-23T05:25:55;9.60;99.90
14397;DHT22;50653;47.810;13.022;2024-03-23T05:28:22;9.60;99.90
14397;DHT22;50653;47.810;13.022;2024-03-23T05:30:54;9.60;99.90
14397;DHT22;50653;47.810;13.022;2024-03-23T05:33:20;9.50;99.90
14397;DHT22;50653;47.810;13.022;2024-03-23T05:35:56;9.60;99.90
14397;DHT22;50653;47.810;13.022;2024-03-23T05:38:21;9.50;99.90
14397;DHT22;50653;47.810;13.022;2024-03-23T05:40:57;9.50;99.90
14397;DHT22;50653;47.810;13.022;2024-03-23T05:43:23;9.50;99.90
14397;DHT22;50653;47.810;13.022;2024-03-23T05:45:55;9.50;99.90
14397;DHT22;50653;47.810;13.022;2024-03-23T05:48:22;9.50;99.90
14397;DHT22;50653;47.810;13.022;2024-03-23T05:50:49;9.40;99.90
14397;DHT22;50653;47.810;13.022;2024-03-23T05:53:15;9.40;99.90
14397;DHT22;50653;47.810;13.022;2024-03-23T05:55:41;9.40;99.90
14397;DHT22;50653;47.810;13.022;2024-03-23T05:58:07;9.40;99.90
14397;DHT22;50653;47.810;13.022;2024-03-23T06:00:33;9.40;99.90
14397;DHT22;50653;47.810;13.022;2024-03-23T06:02:58;9.50;99.90
14397;DHT22;50653;47.810;13.022;2024-03-23T06:05:24;9.70;99.90
14397;DHT22;50653;47.810;13.022;2024-03-23T06:07:50;9.70;99.90
14397;DHT22;50653;47.810;13.022;2024-03-23T06:10:16;9.70;99.90
14397;DHT22;50653;47.810;13.022;2024-03-23T06:12:41;9.80;99.90
14397;DHT22;50653;47.810;13.022;2024-03-23T06:15:08;9.80;99.90
14397;DHT22;50653;47.810;13.022;2024-03-23T06:17:39;9.80;99.90
14397;DHT22;50653;47.810;13.022;2024-03-23T06:20:05;9.80;99.90
14397;DHT22;50653;47.810;13.022;2024-03-23T06:22:36;9.90;99.90
14397;DHT22;50653;47.810;13.022;2024-03-23T06:25:02;9.90;99.90
14397;DHT22;50653;47.810;13.022;2024-03-23T06:27:28;10.00;99.90
14397;DHT22;50653;47.810;13.022;2024-03-23T06:29:53;10.00;99.90
14397;DHT22;50653;47.810;13.022;2024-03-23T06:32:20;10.10;99.90
14397;DHT22;50653;47.810;13.022;2024-03-23T06:34:45;10.20;99.90
14397;DHT22;50653;47.810;13.022;2024-03-23T06:37:11;10.30;99.90
14397;DHT22;50653;47.810;13.022;2024-03-23T06:39:37;10.40;99.90
14397;DHT22;50653;47.810;13.022;2024-03-23T06:42:04;10.40;99.90
14397;DHT22;50653;47.810;13.022;2024-03-23T06:44:29;10.50;99.90
14397;DHT22;50653;47.810;13.022;2024-03-23T06:46:56;10.50;99.90
14397;DHT22;50653;47.810;13.022;2024-03-23T06:49:23;10.60;99.90
14397;DHT22;50653;47.810;13.022;2024-03-23T06:51:48;10.60;99.90
14397;DHT22;50653;47.810;13.022;2024-03-23T06:54:16;10.60;99.90
14397;DHT22;50653;47.810;13.022;2024-03-23T06:56:42;10.60;99.90
14397;DHT22;50653;47.810;13.022;2024-03-23T06:59:09;10.70;99.90
14397;DHT22;50653;47.810;13.022;2024-03-23T07:01:34;10.60;99.90
14397;DHT22;50653;47.810;13.022;2024-03-23T07:04:00;10.70;99.90
14397;DHT22;50653;47.810;13.022;2024-03-23T07:06:26;10.80;99.90
14397;DHT22;50653;47.810;13.022;2024-03-23T07:08:55;10.80;99.90
14397;DHT22;50653;47.810;13.022;2024-03-23T07:11:24;10.80;99.90
14397;DHT22;50653;47.810;13.022;2024-03-23T07:13:51;10.90;99.90
14397;DHT22;50653;47.810;13.022;2024-03-23T07:16:17;10.90;99.90
14397;DHT22;50653;47.810;13.022;2024-03-23T07:18:43;11.00;99.90
14397;DHT22;50653;47.810;13.022;2024-03-23T07:21:08;11.00;99.90
14397;DHT22;50653;47.810;13.022;2024-03-23T07:23:34;11.10;99.90
14397;DHT22;50653;47.810;13.022;2024-03-23T07:26:02;11.20;99.90
14397;DHT22;50653;47.810;13.022;2024-03-23T07:28:28;11.20;99.90
14397;DHT22;50653;47.810;13.022;2024-03-23T07:31:23;11.30;99.90
14397;DHT22;50653;47.810;13.022;2024-03-23T07:33:50;11.40;99.90
14397;DHT22;50653;47.810;13.022;2024-03-23T07:36:16;11.50;99.90
14397;DHT22;50653;47.810;13.022;2024-03-23T07:38:42;11.60;99.90
14397;DHT22;50653;47.810;13.022;2024-03-23T07:41:15;11.60;99.90
14397;DHT22;50653;47.810;13.022;2024-03-23T07:43:45;11.80;99.90
14397;DHT22;50653;47.810;13.022;2024-03-23T07:46:11;11.90;99.90
14397;DHT22;50653;47.810;13.022;2024-03-23T07:48:38;11.90;99.90
14397;DHT22;50653;47.810;13.022;2024-03-23T07:51:07;12.10;99.90
14397;DHT22;50653;47.810;13.022;2024-03-23T07:53:34;12.20;99.90
14397;DHT22;50653;47.810;13.022;2024-03-23T07:56:07;12.30;99.90
14397;DHT22;50653;47.810;13.022;2024-03-23T07:58:33;12.40;99.90
14397;DHT22;50653;47.810;13.022;2024-03-23T08:01:12;12.50;99.90
14397;DHT22;50653;47.810;13.022;2024-03-23T08:03:42;12.60;99.90
14397;DHT22;50653;47.810;13.022;2024-03-23T08:08:37;12.80;99.90
14397;DHT22;50653;47.810;13.022;2024-03-23T08:11:03;12.90;99.90
14397;DHT22;50653;47.810;13.022;2024-03-23T08:13:29;12.90;99.90
14397;DHT22;50653;47.810;13.022;2024-03-23T08:15:59;13.00;99.90
14397;DHT22;50653;47.810;13.022;2024-03-23T08:18:25;13.10;99.90
14397;DHT22;50653;47.810;13.022;2024-03-23T08:21:05;13.30;99.90
14397;DHT22;50653;47.810;13.022;2024-03-23T08:23:32;13.40;99.90
14397;DHT22;50653;47.810;13.022;2024-03-23T08:26:09;13.40;99.90
14397;DHT22;50653;47.810;13.022;2024-03-23T08:28:35;13.50;99.90
14397;DHT22;50653;47.810;13.022;2024-03-23T08:31:03;13.60;99.90
14397;DHT22;50653;47.810;13.022;2024-03-23T08:33:29;13.70;99.90
14397;DHT22;50653;47.810;13.022;2024-03-23T08:35:56;13.80;99.90
14397;DHT22;50653;47.810;13.022;2024-03-23T08:38:24;13.80;99.90
14397;DHT22;50653;47.810;13.022;2024-03-23T08:43:26;14.10;99.90
14397;DHT22;50653;47.810;13.022;2024-03-23T08:45:52;14.30;99.90
14397;DHT22;50653;47.810;13.022;2024-03-23T08:48:21;14.50;99.90
14397;DHT22;50653;47.810;13.022;2024-03-23T08:50:47;14.50;99.90
14397;DHT22;50653;47.810;13.022;2024-03-23T08:53:22;14.60;99.90
14397;DHT22;50653;47.810;13.022;2024-03-23T08:55:55;14.70;99.90
14397;DHT22;50653;47.810;13.022;2024-03-23T08:58:21;14.80;99.90
14397;DHT22;50653;47.810;13.022;2024-03-23T09:00:47;14.80;99.90
14397;DHT22;50653;47.810;13.022;2024-03-23T09:03:12;14.90;99.90
14397;DHT22;50653;47.810;13.022;2024-03-23T09:05:42;15.00;99.90
14397;DHT22;50653;47.810;13.022;2024-03-23T09:08:07;15.10;99.90
14397;DHT22;50653;47.810;13.022;2024-03-23T09:10:40;15.20;99.90
14397;DHT22;50653;47.810;13.022;2024-03-23T09:13:06;15.30;99.90
14397;DHT22;50653;47.810;13.022;2024-03-23T09:15:35;15.40;99.90
14397;DHT22;50653;47.810;13.022;2024-03-23T09:18:01;15.40;99.90
14397;DHT22;50653;47.810;13.022;2024-03-23T09:20:26;15.40;99.90
14397;DHT22;50653;47.810;13.022;2024-03-23T09:22:52;15.50;99.90
14397;DHT22;50653;47.810;13.022;2024-03-23T09:25:18;15.50;99.90
14397;DHT22;50653;47.810;13.022;2024-03-23T09:27:46;15.60;99.90
14397;DHT22;50653;47.810;13.022;2024-03-23T09:30:13;15.60;99.90
14397;DHT22;50653;47.810;13.022;2024-03-23T09:32:39;15.60;99.90
14397;DHT22;50653;47.810;13.022;2024-03-23T09:35:05;15.70;99.90
14397;DHT22;50653;47.810;13.022;2024-03-23T09:37:30;15.80;99.90
14397;DHT22;50653;47.810;13.022;2024-03-23T09:39:56;15.90;99.90
14397;DHT22;50653;47.810;13.022;2024-03-23T09:42:21;16.10;99.90
14397;DHT22;50653;47.810;13.022;2024-03-23T09:44:48;16.00;99.90
14397;DHT22;50653;47.810;13.022;2024-03-23T09:47:17;16.00;99.90
14397;DHT22;50653;47.810;13.022;2024-03-23T09:49:43;15.70;99.90
14397;DHT22;50653;47.810;13.022;2024-03-23T09:52:08;15.20;99.90
14397;DHT22;50653;47.810;13.022;2024-03-23T09:54:35;15.10;99.90
14397;DHT22;50653;47.810;13.022;2024-03-23T09:57:01;14.80;99.90
14397;DHT22;50653;47.810;13.022;2024-03-23T09:59:26;14.70;99.90
14397;DHT22;50653;47.810;13.022;2024-03-23T10:01:53;14.50;99.90
14397;DHT22;50653;47.810;13.022;2024-03-23T10:04:38;14.30;99.90
14397;DHT22;50653;47.810;13.022;2024-03-23T10:07:23;14.50;99.90
14397;DHT22;50653;47.810;13.022;2024-03-23T10:09:48;14.40;99.90
14397;DHT22;50653;47.810;13.022;2024-03-23T10:12:17;14.30;99.90
14397;DHT22;50653;47.810;13.022;2024-03-23T10:14:44;14.20;99.90
14397;DHT22;50653;47.810;13.022;2024-03-23T10:19:40;13.70;99.90
14397;DHT22;50653;47.810;13.022;2024-03-23T10:22:08;13.20;99.90
14397;DHT22;50653;47.810;13.022;2024-03-23T10:24:34;12.90;99.90
14397;DHT22;50653;47.810;13.022;2024-03-23T10:27:00;12.40;99.90
14397;DHT22;50653;47.810;13.022;2024-03-23T10:29:26;12.30;99.90
14397;DHT22;50653;47.810;13.022;2024-03-23T10:31:54;12.30;99.90
14397;DHT22;50653;47.810;13.022;2024-03-23T10:34:26;12.10;99.90
14397;DHT22;50653;47.810;13.022;2024-03-23T10:36:56;12.10;99.90
14397;DHT22;50653;47.810;13.022;2024-03-23T10:39:23;11.90;99.90
14397;DHT22;50653;47.810;13.022;2024-03-23T10:41:53;11.60;99.90
14397;DHT22;50653;47.810;13.022;2024-03-23T10:44:22;11.60;99.90
14397;DHT22;50653;47.810;13.022;2024-03-23T10:46:52;11.30;99.90
14397;DHT22;50653;47.810;13.022;2024-03-23T10:49:25;11.30;99.90
14397;DHT22;50653;47.810;13.022;2024-03-23T10:51:52;11.20;99.90
14397;DHT22;50653;47.810;13.022;2024-03-23T10:54:19;11.20;99.90
14397;DHT22;50653;47.810;13.022;2024-03-23T10:56:46;11.20;99.90
14397;DHT22;50653;47.810;13.022;2024-03-23T10:59:14;11.10;99.90
14397;DHT22;50653;47.810;13.022;2024-03-23T11:01:57;11.00;99.90
14397;DHT22;50653;47.810;13.022;2024-03-23T11:04:39;10.80;99.90
14397;DHT22;50653;47.810;13.022;2024-03-23T11:09:52;10.70;99.90
14397;DHT22;50653;47.810;13.022;2024-03-23T11:14:55;10.80;99.90
14397;DHT22;50653;47.810;13.022;2024-03-23T11:17:24;10.70;99.90
14397;DHT22;50653;47.810;13.022;2024-03-23T11:20:03;10.80;99.90
14397;DHT22;50653;47.810;13.022;2024-03-23T11:22:44;11.00;99.90
14397;DHT22;50653;47.810;13.022;2024-03-23T11:25:19;11.00;99.90
14397;DHT22;50653;47.810;13.022;2024-03-23T11:27:47;10.60;99.90
14397;DHT22;50653;47.810;13.022;2024-03-23T11:30:17;10.60;99.90
14397;DHT22;50653;47.810;13.022;2024-03-23T11:32:44;10.20;99.90
14397;DHT22;50653;47.810;13.022;2024-03-23T11:35:10;10.10;99.90
14397;DHT22;50653;47.810;13.022;2024-03-23T11:37:37;10.00;99.90
14397;DHT22;50653;47.810;13.022;2024-03-23T11:40:18;9.80;99.90
14397;DHT22;50653;47.810;13.022;2024-03-23T11:42:44;9.70;99.90
14397;DHT22;50653;47.810;13.022;2024-03-23T11:45:10;9.30;99.90
14397;DHT22;50653;47.810;13.022;2024-03-23T11:47:36;9.00;99.90
14397;DHT22;50653;47.810;13.022;2024-03-23T11:50:02;9.20;99.90
14397;DHT22;50653;47.810;13.022;2024-03-23T11:52:28;9.30;99.90
14397;DHT22;50653;47.810;13.022;2024-03-23T11:55:03;9.20;99.90
14397;DHT22;50653;47.810;13.022;2024-03-23T11:57:29;9.30;99.90
14397;DHT22;50653;47.810;13.022;2024-03-23T11:59:55;9.40;99.90
14397;DHT22;50653;47.810;13.022;2024-03-23T12:02:21;9.40;99.90
14397;DHT22;50653;47.810;13.022;2024-03-23T12:04:46;9.50;99.90
14397;DHT22;50653;47.810;13.022;2024-03-23T12:07:16;9.30;99.90
14397;DHT22;50653;47.810;13.022;2024-03-23T12:10:05;9.20;99.90
14397;DHT22;50653;47.810;13.022;2024-03-23T12:12:31;8.90;99.90
14397;DHT22;50653;47.810;13.022;2024-03-23T12:15:07;9.00;99.90
14397;DHT22;50653;47.810;13.022;2024-03-23T12:17:34;9.00;99.90
14397;DHT22;50653;47.810;13.022;2024-03-23T12:20:01;8.80;99.90
14397;DHT22;50653;47.810;13.022;2024-03-23T12:22:27;8.40;99.90
14397;DHT22;50653;47.810;13.022;2024-03-23T12:24:53;8.50;99.90
14397;DHT22;50653;47.810;13.022;2024-03-23T12:27:18;8.70;99.90
14397;DHT22;50653;47.810;13.022;2024-03-23T12:29:44;8.30;99.90
14397;DHT22;50653;47.810;13.022;2024-03-23T12:32:13;8.20;99.90
14397;DHT22;50653;47.810;13.022;2024-03-23T12:34:38;8.40;99.90
14397;DHT22;50653;47.810;13.022;2024-03-23T12:37:04;8.50;99.90
14397;DHT22;50653;47.810;13.022;2024-03-23T12:39:32;8.50;99.90
14397;DHT22;50653;47.810;13.022;2024-03-23T12:41:57;8.50;99.90
14397;DHT22;50653;47.810;13.022;2024-03-23T12:44:23;8.30;99.90
14397;DHT22;50653;47.810;13.022;2024-03-23T12:46:49;8.10;99.90
14397;DHT22;50653;47.810;13.022;2024-03-23T12:49:14;7.50;99.90
14397;DHT22;50653;47.810;13.022;2024-03-23T12:51:53;7.30;99.90
14397;DHT22;50653;47.810;13.022;2024-03-23T12:54:19;7.40;99.90
14397;DHT22;50653;47.810;13.022;2024-03-23T12:56:46;7.50;99.90
14397;DHT22;50653;47.810;13.022;2024-03-23T12:59:11;7.50;99.90
14397;DHT22;50653;47.810;13.022;2024-03-23T13:01:38;7.40;99.90
14397;DHT22;50653;47.810;13.022;2024-03-23T13:04:04;7.30;99.90
14397;DHT22;50653;47.810;13.022;2024-03-23T13:06:30;7.30;99.90
14397;DHT22;50653;47.810;13.022;2024-03-23T13:09:03;7.40;99.90
14397;DHT22;50653;47.810;13.022;2024-03-23T13:11:30;7.50;99.90
14397;DHT22;50653;47.810;13.022;2024-03-23T13:13:55;7.50;99.90
14397;DHT22;50653;47.810;13.022;2024-03-23T13:16:21;7.50;99.90
14397;DHT22;50653;47.810;13.022;2024-03-23T13:18:48;7.50;99.90
14397;DHT22;50653;47.810;13.022;2024-03-23T13:21:13;7.50;99.90
14397;DHT22;50653;47.810;13.022;2024-03-23T13:23:39;7.50;99.90
14397;DHT22;50653;47.810;13.022;2024-03-23T13:26:08;7.50;99.90
14397;DHT22;50653;47.810;13.022;2024-03-23T13:28:33;7.40;99.90
14397;DHT22;50653;47.810;13.022;2024-03-23T13:31:00;7.50;99.90
14397;DHT22;50653;47.810;13.022;2024-03-23T13:33:31;7.60;99.90
14397;DHT22;50653;47.810;13.022;2024-03-23T13:35:58;7.60;99.90
14397;DHT22;50653;47.810;13.022;2024-03-23T13:38:24;7.60;99.90
14397;DHT22;50653;47.810;13.022;2024-03-23T13:40:57;7.60;99.90
14397;DHT22;50653;47.810;13.022;2024-03-23T13:43:23;7.70;99.90
14397;DHT22;50653;47.810;13.022;2024-03-23T13:45:59;7.60;99.90
14397;DHT22;50653;47.810;13.022;2024-03-23T13:48:26;7.70;99.90
14397;DHT22;50653;47.810;13.022;2024-03-23T13:50:59;7.70;99.90
14397;DHT22;50653;47.810;13.022;2024-03-23T13:53:25;7.90;99.90
14397;DHT22;50653;47.810;13.022;2024-03-23T13:55:51;7.90;99.90
14397;DHT22;50653;47.810;13.022;2024-03-23T13:58:17;7.90;99.90
14397;DHT22;50653;47.810;13.022;2024-03-23T14:00:42;8.00;99.90
14397;DHT22;50653;47.810;13.022;2024-03-23T14:03:09;7.90;99.90
14397;DHT22;50653;47.810;13.022;2024-03-23T14:05:36;8.00;99.90
14397;DHT22;50653;47.810;13.022;2024-03-23T14:08:04;8.00;99.90
14397;DHT22;50653;47.810;13.022;2024-03-23T14:10:30;8.00;99.90
14397;DHT22;50653;47.810;13.022;2024-03-23T14:12:56;8.00;99.90
14397;DHT22;50653;47.810;13.022;2024-03-23T14:15:21;8.10;99.90
14397;DHT22;50653;47.810;13.022;2024-03-23T14:17:47;8.10;99.90
14397;DHT22;50653;47.810;13.022;2024-03-23T14:20:13;8.10;99.90
14397;DHT22;50653;47.810;13.022;2024-03-23T14:22:39;8.10;99.90
14397;DHT22;50653;47.810;13.022;2024-03-23T14:25:07;8.00;99.90
14397;DHT22;50653;47.810;13.022;2024-03-23T14:27:32;8.00;99.90
14397;DHT22;50653;47.810;13.022;2024-03-23T14:30:04;7.90;99.90
14397;DHT22;50653;47.810;13.022;2024-03-23T14:32:32;7.90;99.90
14397;DHT22;50653;47.810;13.022;2024-03-23T14:35:06;8.00;99.90
14397;DHT22;50653;47.810;13.022;2024-03-23T14:37:39;8.00;99.90
14397;DHT22;50653;47.810;13.022;2024-03-23T14:40:05;8.00;99.90
14397;DHT22;50653;47.810;13.022;2024-03-23T14:42:32;8.10;99.90
14397;DHT22;50653;47.810;13.022;2024-03-23T14:44:58;7.90;99.90
14397;DHT22;50653;47.810;13.022;2024-03-23T14:47:23;7.90;99.90
14397;DHT22;50653;47.810;13.022;2024-03-23T14:49:49;8.00;99.90
14397;DHT22;50653;47.810;13.022;2024-03-23T14:52:19;8.10;99.90
14397;DHT22;50653;47.810;13.022;2024-03-23T14:54:45;8.00;99.90
14397;DHT22;50653;47.810;13.022;2024-03-23T14:57:11;8.00;99.90
14397;DHT22;50653;47.810;13.022;2024-03-23T14:59:38;8.00;99.90
14397;DHT22;50653;47.810;13.022;2024-03-23T15:02:04;8.00;99.90
14397;DHT22;50653;47.810;13.022;2024-03-23T15:04:30;8.00;99.90
14397;DHT22;50653;47.810;13.022;2024-03-23T15:06:56;8.00;99.90
14397;DHT22;50653;47.810;13.022;2024-03-23T15:09:21;8.00;99.90
14397;DHT22;50653;47.810;13.022;2024-03-23T15:11:47;8.10;99.90
14397;DHT22;50653;47.810;13.022;2024-03-23T15:14:13;8.10;99.90
14397;DHT22;50653;47.810;13.022;2024-03-23T15:16:38;8.00;99.90
14397;DHT22;50653;47.810;13.022;2024-03-23T15:19:04;8.10;99.90
14397;DHT22;50653;47.810;13.022;2024-03-23T15:21:33;8.00;99.90
14397;DHT22;50653;47.810;13.022;2024-03-23T15:23:59;7.90;99.90
14397;DHT22;50653;47.810;13.022;2024-03-23T15:26:25;7.90;99.90
14397;DHT22;50653;47.810;13.022;2024-03-23T15:28:51;7.90;99.90
14397;DHT22;50653;47.810;13.022;2024-03-23T15:31:22;7.90;99.90
14397;DHT22;50653;47.810;13.022;2024-03-23T15:33:48;7.90;99.90
14397;DHT22;50653;47.810;13.022;2024-03-23T15:36:14;7.90;99.90
14397;DHT22;50653;47.810;13.022;2024-03-23T15:38:40;7.90;99.90
14397;DHT22;50653;47.810;13.022;2024-03-23T15:41:06;7.80;99.90
14397;DHT22;50653;47.810;13.022;2024-03-23T15:43:32;7.90;99.90
14397;DHT22;50653;47.810;13.022;2024-03-23T15:45:58;7.90;99.90
14397;DHT22;50653;47.810;13.022;2024-03-23T15:48:29;8.00;99.90
14397;DHT22;50653;47.810;13.022;2024-03-23T15:50:56;8.00;99.90
14397;DHT22;50653;47.810;13.022;2024-03-23T15:53:23;7.90;99.90
14397;DHT22;50653;47.810;13.022;2024-03-23T15:55:55;7.90;99.90
14397;DHT22;50653;47.810;13.022;2024-03-23T15:58:22;7.80;99.90
14397;DHT22;50653;47.810;13.022;2024-03-23T16:01:04;7.70;99.90
14397;DHT22;50653;47.810;13.022;2024-03-23T16:03:30;7.50;99.90
14397;DHT22;50653;47.810;13.022;2024-03-23T16:06:00;7.30;99.90
14397;DHT22;50653;47.810;13.022;2024-03-23T16:08:26;7.10;99.90
14397;DHT22;50653;47.810;13.022;2024-03-23T16:10:52;7.10;99.90
14397;DHT22;50653;47.810;13.022;2024-03-23T16:13:18;6.90;99.90
14397;DHT22;50653;47.810;13.022;2024-03-23T16:15:45;6.80;99.90
14397;DHT22;50653;47.810;13.022;2024-03-23T16:18:11;6.80;99.90
14397;DHT22;50653;47.810;13.022;2024-03-23T16:20:36;6.80;99.90
14397;DHT22;50653;47.810;13.022;2024-03-23T16:23:03;6.60;99.90
14397;DHT22;50653;47.810;13.022;2024-03-23T16:25:29;6.60;99.90
14397;DHT22;50653;47.810;13.022;2024-03-23T16:27:55;6.70;99.90
14397;DHT22;50653;47.810;13.022;2024-03-23T16:30:21;6.70;99.90